Terminal Aerodrome Forecast
Issued by NWS Pueblo, CO

Home | Current Version | Previous Version | Text Only | Print | Product List | Glossary On
Versions: 1 2 3 4 5 6 7 8 9 10 11 12 13 14 15 16 17 18 19 20 21 22 23
000
FTUS45 KPUB 270534
TAFALS
TAF
KALS 270534Z 2706/2806 VRB05KT P6SM BKN080 OVC100
     FM271800 23012G22KT P6SM SCT060 SCT100 BKN200
     FM280200 VRB05KT P6SM FEW080 SCT100 SCT200=

USA.gov is the U.S. government's official web portal to all federal, state and local government web resources and services.